Time;durP1;ratioP1;P1;durP2;ratioP2;P2;SDS_P1;SDS_P2;PMS_P1;PMS_P2;Temp;Humidity;BMP_temperature;BMP_pressure;BME280_temperature;BME280_humidity;BME280_pressure;Samples;Min_cycle;Max_cycle;Signal;HPM_P1;HPM_P2
2023/03/19 00:02:02;;;;;;;9.32;6.15;;;10.20;99.90;;;;;;5015353;28;20618;-86
2023/03/19 00:04:28;;;;;;;9.25;6.68;;;10.20;99.90;;;;;;5014303;28;20211;-86
2023/03/19 00:06:54;;;;;;;8.45;6.47;;;10.10;99.90;;;;;;5014145;28;20597;-86
2023/03/19 00:09:21;;;;;;;8.93;6.65;;;10.10;99.90;;;;;;5014811;28;20183;-87
2023/03/19 00:11:49;;;;;;;8.85;6.47;;;10.10;99.90;;;;;;5014921;28;20183;-87
2023/03/19 00:14:16;;;;;;;9.05;6.38;;;10.10;99.90;;;;;;5015179;28;20614;-87
2023/03/19 00:16:42;;;;;;;8.43;6.22;;;10.20;99.90;;;;;;5014229;28;20179;-86
2023/03/19 00:19:08;;;;;;;9.40;6.18;;;10.20;99.90;;;;;;5014323;28;20179;-86
2023/03/19 00:21:35;;;;;;;6.15;5.32;;;10.20;99.90;;;;;;5014726;28;20190;-87
2023/03/19 00:24:01;;;;;;;8.07;5.80;;;10.10;99.90;;;;;;5014383;28;20257;-85
2023/03/19 00:26:28;;;;;;;9.95;6.38;;;10.20;99.90;;;;;;5014399;28;20210;-86
2023/03/19 00:28:55;;;;;;;7.95;6.45;;;10.20;99.90;;;;;;5014113;28;20175;-85
2023/03/19 00:31:23;;;;;;;10.05;6.10;;;10.20;99.90;;;;;;5013659;28;20222;-85
2023/03/19 00:33:50;;;;;;;7.95;5.45;;;10.30;99.90;;;;;;5014021;28;20179;-87
2023/03/19 00:36:16;;;;;;;10.77;5.97;;;10.30;99.90;;;;;;5015548;28;20218;-86
2023/03/19 00:38:43;;;;;;;11.45;5.57;;;10.30;99.90;;;;;;5462031;22;20197;-84
2023/03/19 00:41:09;;;;;;;6.90;5.75;;;10.30;99.90;;;;;;5031109;28;20221;-86
2023/03/19 00:43:35;;;;;;;11.18;5.60;;;10.30;99.90;;;;;;5017005;28;20186;-86
2023/03/19 00:46:01;;;;;;;8.30;5.32;;;10.30;99.90;;;;;;5016990;28;20210;-87
2023/03/19 00:48:27;;;;;;;8.35;4.53;;;10.30;99.90;;;;;;5035267;28;20198;-87
2023/03/19 00:50:53;;;;;;;6.18;4.70;;;10.20;99.90;;;;;;5017502;28;20175;-86
2023/03/19 00:53:20;;;;;;;5.93;4.60;;;10.30;99.90;;;;;;5017394;28;20213;-87
2023/03/19 00:55:46;;;;;;;7.57;4.35;;;10.30;99.90;;;;;;5017628;28;20178;-88
2023/03/19 00:58:12;;;;;;;6.90;4.63;;;10.30;99.90;;;;;;5017846;28;20174;-88
2023/03/19 01:00:39;;;;;;;5.00;4.13;;;10.30;99.90;;;;;;5005616;28;20183;-87
2023/03/19 01:03:06;;;;;;;9.20;4.82;;;10.30;99.90;;;;;;5014884;28;20515;-87
2023/03/19 01:05:34;;;;;;;8.13;4.80;;;10.20;99.90;;;;;;5015307;28;20205;-88
2023/03/19 01:07:59;;;;;;;6.85;4.30;;;10.20;99.90;;;;;;4997189;28;20579;-86
2023/03/19 01:10:33;;;;;;;9.50;4.13;;;10.20;99.90;;;;;;5027128;28;20278;-87
2023/03/19 01:12:58;;;;;;;5.43;2.97;;;10.20;99.90;;;;;;5017119;28;20185;-88
2023/03/19 01:15:26;;;;;;;5.50;3.50;;;10.20;99.90;;;;;;5034132;28;20182;-87
2023/03/19 01:17:51;;;;;;;6.35;2.90;;;10.20;99.90;;;;;;5019662;28;20601;-87
2023/03/19 01:20:17;;;;;;;4.65;3.20;;;10.20;99.90;;;;;;4997520;28;20201;-87
2023/03/19 01:22:45;;;;;;;3.08;2.55;;;10.20;99.90;;;;;;4998082;28;20175;-88
2023/03/19 01:25:12;;;;;;;4.65;3.00;;;10.20;99.90;;;;;;4997045;28;20237;-87
2023/03/19 01:27:39;;;;;;;4.68;2.85;;;10.20;99.90;;;;;;5015314;28;20191;-87
2023/03/19 01:30:06;;;;;;;8.32;2.85;;;10.20;99.90;;;;;;4997265;28;20179;-87
2023/03/19 01:32:36;;;;;;;6.43;2.90;;;10.10;99.90;;;;;;4997423;28;20183;-87
2023/03/19 01:35:01;;;;;;;6.25;2.67;;;10.10;99.90;;;;;;4997642;28;20633;-87
2023/03/19 01:37:28;;;;;;;6.97;2.95;;;10.10;99.90;;;;;;4997321;28;20183;-86
2023/03/19 01:39:53;;;;;;;4.65;3.05;;;10.10;99.90;;;;;;4996663;28;20231;-87
2023/03/19 01:42:19;;;;;;;3.53;3.17;;;10.00;99.90;;;;;;5014526;28;20559;-87
2023/03/19 01:44:45;;;;;;;5.38;3.45;;;10.00;99.90;;;;;;4996791;28;20198;-87
2023/03/19 01:47:18;;;;;;;4.40;3.05;;;10.00;99.90;;;;;;4998059;28;20523;-87
2023/03/19 01:49:53;;;;;;;3.30;2.40;;;9.90;99.90;;;;;;5001287;28;20494;-88
2023/03/19 01:52:22;;;;;;;7.05;2.83;;;9.80;99.90;;;;;;5018834;28;20229;-86
2023/03/19 01:54:49;;;;;;;3.90;2.70;;;9.80;99.90;;;;;;5002644;28;20183;-87
2023/03/19 01:57:16;;;;;;;4.70;3.03;;;9.80;99.90;;;;;;5021229;28;20204;-88
2023/03/19 01:59:49;;;;;;;5.90;2.90;;;9.80;99.90;;;;;;5012518;28;20197;-87
2023/03/19 02:02:29;;;;;;;4.25;2.35;;;9.70;99.90;;;;;;5000882;28;20171;-87
2023/03/19 02:05:12;;;;;;;4.47;2.80;;;9.70;99.90;;;;;;5000994;28;20170;-87
2023/03/19 02:07:40;;;;;;;6.10;3.40;;;9.70;99.90;;;;;;5001078;28;20491;-87
2023/03/19 02:10:10;;;;;;;5.65;2.80;;;9.60;99.90;;;;;;5028811;28;20189;-87
2023/03/19 02:12:38;;;;;;;3.70;2.20;;;9.50;99.90;;;;;;5019923;28;20569;-87
2023/03/19 02:15:06;;;;;;;4.07;2.10;;;9.50;99.90;;;;;;5038146;28;20648;-87
2023/03/19 02:17:32;;;;;;;2.30;2.10;;;9.50;99.90;;;;;;5004661;28;20263;-87
2023/03/19 02:20:08;;;;;;;4.15;2.00;;;9.40;99.90;;;;;;5020363;28;20186;-87
2023/03/19 02:22:42;;;;;;;3.00;2.30;;;9.40;99.90;;;;;;5019984;28;20178;-87
2023/03/19 02:25:23;;;;;;;4.00;2.10;;;9.40;99.90;;;;;;5037324;28;20197;-87
2023/03/19 02:27:49;;;;;;;3.53;2.90;;;9.40;99.90;;;;;;5020296;28;20232;-87
2023/03/19 02:30:29;;;;;;;2.53;2.28;;;9.30;99.90;;;;;;5020231;28;20178;-87
2023/03/19 02:32:55;;;;;;;2.75;2.10;;;9.30;99.90;;;;;;5037913;28;20265;-87
2023/03/19 02:35:21;;;;;;;1.98;1.60;;;9.30;99.90;;;;;;5020216;28;20214;-86
2023/03/19 02:37:47;;;;;;;2.58;2.00;;;9.20;99.90;;;;;;5019943;28;20175;-87
2023/03/19 02:40:22;;;;;;;3.53;2.50;;;9.20;99.90;;;;;;5018763;28;20264;-87
2023/03/19 02:42:48;;;;;;;2.92;2.10;;;9.20;99.90;;;;;;5019810;28;20189;-87
2023/03/19 02:45:14;;;;;;;1.80;1.55;;;9.20;99.90;;;;;;5020037;28;20234;-87
2023/03/19 02:47:40;;;;;;;1.50;1.40;;;9.10;99.90;;;;;;5020087;28;20182;-87
2023/03/19 02:50:07;;;;;;;1.00;0.90;;;9.00;99.90;;;;;;5012507;28;20685;-88
2023/03/19 02:52:35;;;;;;;1.10;1.00;;;9.00;99.90;;;;;;5010483;28;20521;-87
2023/03/19 02:55:01;;;;;;;2.53;1.50;;;9.00;99.90;;;;;;5036633;28;20167;-86
2023/03/19 02:57:27;;;;;;;1.92;1.73;;;9.00;99.90;;;;;;5011703;28;20191;-87
2023/03/19 02:59:52;;;;;;;2.10;1.90;;;9.00;99.90;;;;;;5016439;28;20210;-86
2023/03/19 03:02:22;;;;;;;2.17;1.98;;;9.00;99.90;;;;;;5000036;28;20183;-87
2023/03/19 03:04:48;;;;;;;2.88;2.00;;;9.00;99.90;;;;;;5000720;28;20171;-87
2023/03/19 03:07:13;;;;;;;2.03;1.67;;;9.00;99.90;;;;;;5037658;28;20183;-87
2023/03/19 03:09:39;;;;;;;2.13;1.65;;;9.00;99.90;;;;;;5036462;28;20166;-87
2023/03/19 03:12:07;;;;;;;2.00;1.67;;;8.90;99.90;;;;;;5018683;28;20178;-86
2023/03/19 03:14:33;;;;;;;3.35;2.13;;;8.80;99.90;;;;;;5004961;28;20644;-87
2023/03/19 03:16:59;;;;;;;4.28;2.03;;;8.80;99.90;;;;;;5017326;28;20234;-87
2023/03/19 03:19:25;;;;;;;2.55;2.10;;;8.90;99.90;;;;;;4999843;28;20187;-88
2023/03/19 03:21:57;;;;;;;2.30;2.10;;;8.80;99.90;;;;;;4999669;28;20190;-86
2023/03/19 03:24:23;;;;;;;2.00;1.80;;;8.80;99.90;;;;;;4998930;28;20254;-86
2023/03/19 03:26:48;;;;;;;6.70;1.92;;;8.70;99.90;;;;;;5015398;28;20787;-86
2023/03/19 03:29:14;;;;;;;1.63;1.52;;;8.60;99.90;;;;;;4999713;28;20179;-86
2023/03/19 03:31:41;;;;;;;2.78;2.17;;;8.50;99.90;;;;;;4999549;28;20179;-87
2023/03/19 03:34:06;;;;;;;2.67;2.00;;;8.50;99.90;;;;;;5017301;28;20199;-86
2023/03/19 03:36:32;;;;;;;4.70;2.22;;;8.50;99.90;;;;;;5000103;28;20564;-87
2023/03/19 03:38:58;;;;;;;2.95;2.30;;;8.50;99.90;;;;;;4999508;28;20186;-87
2023/03/19 03:41:24;;;;;;;3.85;2.40;;;8.50;99.90;;;;;;4999579;28;20198;-87
2023/03/19 03:43:51;;;;;;;4.70;2.20;;;8.50;99.90;;;;;;4999286;28;20183;-87
2023/03/19 03:46:17;;;;;;;3.95;2.50;;;8.50;99.90;;;;;;4998610;28;20218;-87
2023/03/19 03:48:42;;;;;;;2.95;2.63;;;8.50;99.90;;;;;;4998937;28;20516;-87
2023/03/19 03:51:08;;;;;;;2.53;2.30;;;8.40;99.90;;;;;;5002159;28;20565;-87
2023/03/19 03:53:35;;;;;;;2.60;2.13;;;8.50;99.90;;;;;;4998975;28;20175;-86
2023/03/19 03:56:01;;;;;;;2.33;2.13;;;8.50;99.90;;;;;;4997836;28;20179;-87
2023/03/19 03:58:27;;;;;;;3.72;2.50;;;8.50;99.90;;;;;;4999279;28;20187;-87
2023/03/19 04:00:54;;;;;;;2.00;1.75;;;8.50;99.90;;;;;;4998612;28;20182;-87
2023/03/19 04:03:21;;;;;;;2.67;2.20;;;8.40;99.90;;;;;;4998604;28;20218;-88
2023/03/19 04:05:46;;;;;;;2.95;2.38;;;8.30;99.90;;;;;;4999095;28;20210;-87
2023/03/19 04:08:12;;;;;;;2.58;1.98;;;8.30;99.90;;;;;;5010577;28;20179;-87
2023/03/19 04:10:41;;;;;;;2.53;2.33;;;8.30;99.90;;;;;;5017247;28;20325;-87
2023/03/19 04:13:08;;;;;;;3.22;2.25;;;8.40;99.90;;;;;;5035493;28;20170;-86
2023/03/19 04:15:34;;;;;;;3.78;2.50;;;8.40;99.90;;;;;;5018332;28;20250;-87
2023/03/19 04:18:00;;;;;;;2.97;2.42;;;8.40;99.90;;;;;;5018065;28;20182;-87
2023/03/19 04:20:26;;;;;;;3.45;2.60;;;8.50;99.90;;;;;;5016731;28;20178;-86
2023/03/19 04:22:52;;;;;;;3.13;2.53;;;8.50;99.90;;;;;;5017029;28;20182;-87
2023/03/19 04:25:18;;;;;;;2.65;2.40;;;8.50;99.90;;;;;;5016645;28;20249;-85
2023/03/19 04:27:44;;;;;;;3.10;2.50;;;8.50;99.90;;;;;;5035647;28;20189;-86
2023/03/19 04:30:11;;;;;;;3.38;2.75;;;8.40;99.90;;;;;;5018174;28;20178;-87
2023/03/19 04:32:37;;;;;;;3.95;2.92;;;8.40;99.90;;;;;;5017201;28;20182;-87
2023/03/19 04:35:03;;;;;;;2.88;2.55;;;8.40;99.90;;;;;;5017510;28;20171;-87
2023/03/19 04:37:30;;;;;;;3.38;2.60;;;8.40;99.90;;;;;;5017774;28;20191;-86
2023/03/19 04:39:55;;;;;;;3.13;2.50;;;8.40;99.90;;;;;;5017454;28;20268;-87
2023/03/19 04:42:24;;;;;;;5.07;2.20;;;8.40;99.90;;;;;;5018057;28;20508;-87
2023/03/19 04:44:51;;;;;;;5.93;2.40;;;8.40;99.90;;;;;;5035602;28;20620;-87
2023/03/19 04:47:17;;;;;;;5.00;2.47;;;8.30;99.90;;;;;;5013780;28;20193;-86
2023/03/19 04:49:42;;;;;;;2.83;2.30;;;8.30;99.90;;;;;;5006142;28;20281;-87
2023/03/19 04:52:08;;;;;;;3.73;2.40;;;8.30;99.90;;;;;;5035298;28;20194;-87
2023/03/19 04:54:34;;;;;;;5.73;2.80;;;8.30;99.90;;;;;;5017637;28;20652;-87
2023/03/19 04:56:59;;;;;;;4.53;2.45;;;8.30;99.90;;;;;;5016967;28;20182;-87
2023/03/19 04:59:26;;;;;;;2.80;2.60;;;8.30;99.90;;;;;;5017378;28;20197;-86
2023/03/19 05:01:51;;;;;;;3.50;2.60;;;8.40;99.90;;;;;;5015151;28;20179;-87
2023/03/19 05:04:17;;;;;;;4.38;2.88;;;8.40;99.90;;;;;;5028803;28;20179;-86
2023/03/19 05:06:43;;;;;;;5.40;2.70;;;8.40;99.90;;;;;;4998361;28;20202;-86
2023/03/19 05:09:08;;;;;;;2.60;2.30;;;8.40;99.90;;;;;;5014628;28;20254;-86
2023/03/19 05:11:34;;;;;;;3.53;2.30;;;8.40;99.90;;;;;;5015396;28;20487;-87
2023/03/19 05:14:00;;;;;;;4.70;2.40;;;8.40;99.90;;;;;;4998097;28;20171;-88
2023/03/19 05:16:26;;;;;;;3.67;2.15;;;8.40;99.90;;;;;;5014375;28;20195;-87
2023/03/19 05:18:52;;;;;;;4.78;2.55;;;8.30;99.90;;;;;;4997720;28;20662;-87
2023/03/19 05:21:17;;;;;;;3.78;2.70;;;8.30;99.90;;;;;;5005148;28;20218;-86
2023/03/19 05:23:43;;;;;;;6.50;2.72;;;8.40;99.90;;;;;;5016429;28;20555;-87
2023/03/19 05:26:10;;;;;;;2.05;1.88;;;8.40;99.90;;;;;;5016372;28;20213;-86
2023/03/19 05:28:36;;;;;;;4.15;2.30;;;8.30;99.90;;;;;;5016959;28;20209;-87
2023/03/19 05:31:03;;;;;;;3.50;2.50;;;8.20;99.90;;;;;;5016858;28;20214;-85
2023/03/19 05:33:31;;;;;;;4.23;2.33;;;8.10;99.90;;;;;;5017350;28;20179;-87
2023/03/19 05:35:57;;;;;;;2.72;2.33;;;8.10;99.90;;;;;;5016297;28;20261;-86
2023/03/19 05:38:22;;;;;;;3.00;2.50;;;8.10;99.90;;;;;;5014779;28;20262;-86
2023/03/19 05:40:48;;;;;;;3.10;2.25;;;8.10;99.90;;;;;;5031392;28;20241;-87
2023/03/19 05:43:16;;;;;;;3.83;2.58;;;8.10;99.90;;;;;;5027925;28;20238;-87
2023/03/19 05:45:42;;;;;;;3.30;2.50;;;8.10;99.90;;;;;;5006573;28;20194;-86
2023/03/19 05:48:08;;;;;;;3.72;2.63;;;8.20;99.90;;;;;;5008657;28;20186;-86
2023/03/19 05:50:34;;;;;;;3.40;2.50;;;8.10;99.90;;;;;;5016472;28;20594;-86
2023/03/19 05:53:00;;;;;;;4.50;2.63;;;8.20;99.90;;;;;;5027464;28;20206;-85
2023/03/19 05:55:25;;;;;;;4.00;2.50;;;8.20;99.90;;;;;;5014852;28;20265;-86
2023/03/19 05:57:52;;;;;;;3.30;2.53;;;8.30;99.90;;;;;;5020461;28;20560;-85
2023/03/19 06:00:18;;;;;;;3.72;2.60;;;8.30;99.90;;;;;;5032027;28;20629;-85
2023/03/19 06:02:44;;;;;;;4.00;2.77;;;8.30;99.90;;;;;;5013201;28;20205;-84
2023/03/19 06:05:12;;;;;;;5.25;2.72;;;8.40;99.90;;;;;;5021896;28;20214;-87
2023/03/19 06:07:37;;;;;;;3.30;2.63;;;8.40;99.90;;;;;;4997414;28;20209;-86
2023/03/19 06:10:05;;;;;;;5.07;2.50;;;8.40;99.90;;;;;;5014735;28;20261;-87
2023/03/19 06:12:31;;;;;;;8.03;2.90;;;8.40;99.90;;;;;;5016459;28;20183;-87
2023/03/19 06:14:57;;;;;;;3.13;2.60;;;8.40;99.90;;;;;;5033484;28;20186;-88
2023/03/19 06:17:23;;;;;;;3.05;2.50;;;8.40;99.90;;;;;;5016610;28;20182;-87
2023/03/19 06:19:49;;;;;;;4.90;3.00;;;8.40;99.90;;;;;;5032895;28;20191;-86
2023/03/19 06:22:15;;;;;;;4.43;2.63;;;8.40;99.90;;;;;;5033086;28;20186;-87
2023/03/19 06:24:40;;;;;;;4.20;2.60;;;8.50;99.90;;;;;;5016725;28;20201;-87
2023/03/19 06:27:06;;;;;;;4.82;2.85;;;8.50;99.90;;;;;;5009423;28;20310;-88
2023/03/19 06:29:32;;;;;;;3.47;2.60;;;8.50;99.90;;;;;;5013462;28;20179;-86
2023/03/19 06:31:58;;;;;;;3.20;2.40;;;8.60;99.90;;;;;;5012692;28;20507;-86
2023/03/19 06:34:24;;;;;;;4.27;2.80;;;8.50;99.90;;;;;;5015061;28;20197;-87
2023/03/19 06:36:50;;;;;;;6.15;2.80;;;8.60;99.90;;;;;;5016554;28;20279;-85
2023/03/19 06:39:15;;;;;;;3.00;2.38;;;8.60;99.90;;;;;;5016478;28;20306;-87
2023/03/19 06:41:41;;;;;;;2.50;2.30;;;8.60;99.90;;;;;;5016425;28;20644;-87
2023/03/19 06:44:07;;;;;;;4.07;2.30;;;8.60;99.90;;;;;;5016888;28;20186;-87
2023/03/19 06:46:32;;;;;;;2.80;2.25;;;8.60;99.90;;;;;;5018004;28;20234;-87
2023/03/19 06:48:58;;;;;;;3.33;2.38;;;8.60;99.90;;;;;;5016824;28;20183;-86
2023/03/19 06:51:26;;;;;;;3.63;2.10;;;8.70;99.90;;;;;;5017757;28;20245;-86
2023/03/19 06:53:59;;;;;;;5.20;2.33;;;8.60;99.90;;;;;;5019505;28;20621;-86
2023/03/19 06:56:26;;;;;;;2.78;2.20;;;8.60;99.90;;;;;;5037164;28;20163;-87
2023/03/19 06:58:51;;;;;;;4.05;2.42;;;8.70;99.90;;;;;;5019985;28;20182;-88
2023/03/19 07:01:17;;;;;;;3.90;2.40;;;8.80;99.90;;;;;;5019372;28;20193;-86
2023/03/19 07:03:44;;;;;;;3.25;2.50;;;9.00;99.90;;;;;;5019004;28;20182;-86
2023/03/19 07:06:10;;;;;;;4.18;2.60;;;9.10;99.90;;;;;;5019485;28;20203;-86
2023/03/19 07:08:36;;;;;;;4.88;2.63;;;9.30;99.90;;;;;;5019768;28;20176;-87
2023/03/19 07:11:04;;;;;;;5.00;3.65;;;9.50;99.90;;;;;;5018732;28;20191;-86
2023/03/19 07:13:29;;;;;;;5.30;3.00;;;9.60;99.90;;;;;;5019250;28;20178;-87
2023/03/19 07:15:59;;;;;;;4.60;2.83;;;9.70;99.90;;;;;;5017384;28;20197;-87
2023/03/19 07:18:26;;;;;;;4.55;3.03;;;9.80;99.90;;;;;;5020721;28;20176;-87
2023/03/19 07:20:54;;;;;;;9.57;3.15;;;9.90;99.90;;;;;;5022454;28;20210;-87
2023/03/19 07:23:20;;;;;;;5.40;2.97;;;10.10;99.90;;;;;;5027576;28;20179;-87
2023/03/19 07:25:46;;;;;;;3.75;2.83;;;10.20;99.90;;;;;;5026704;28;20324;-87
2023/03/19 07:28:13;;;;;;;5.20;2.83;;;10.30;99.90;;;;;;5026117;28;20167;-87
2023/03/19 07:30:38;;;;;;;9.68;3.55;;;10.40;99.90;;;;;;4999520;28;20293;-88
2023/03/19 07:33:06;;;;;;;4.72;3.25;;;10.60;99.90;;;;;;5017853;28;20265;-88
2023/03/19 07:35:33;;;;;;;5.55;3.25;;;10.70;99.90;;;;;;5018851;28;20179;-86
2023/03/19 07:37:59;;;;;;;4.93;3.08;;;10.80;99.90;;;;;;5019086;28;20233;-89
2023/03/19 07:40:25;;;;;;;3.00;2.70;;;10.90;99.90;;;;;;5018312;28;20218;-88
2023/03/19 07:42:52;;;;;;;10.52;2.90;;;10.90;99.90;;;;;;5025681;28;20206;-87
2023/03/19 07:45:17;;;;;;;8.73;2.67;;;11.00;99.90;;;;;;5024503;28;20202;-89
2023/03/19 07:47:43;;;;;;;5.40;2.60;;;11.10;99.90;;;;;;5019137;28;20178;-89
2023/03/19 07:50:10;;;;;;;4.53;2.83;;;11.10;99.90;;;;;;5027383;28;20687;-89
2023/03/19 07:52:36;;;;;;;4.07;2.50;;;11.20;99.90;;;;;;5002349;28;20213;-89
2023/03/19 07:55:05;;;;;;;5.07;2.58;;;11.30;99.90;;;;;;5010067;28;20183;-87
2023/03/19 07:57:31;;;;;;;4.00;2.72;;;11.30;99.90;;;;;;5009973;28;20625;-89
2023/03/19 07:59:57;;;;;;;7.75;3.33;;;11.30;99.90;;;;;;5028063;28;20181;-91
2023/03/19 08:02:23;;;;;;;3.42;2.80;;;11.30;99.90;;;;;;5028940;28;20178;-89
2023/03/19 08:04:50;;;;;;;6.13;3.25;;;11.30;99.90;;;;;;5028838;28;20187;-90
2023/03/19 08:07:15;;;;;;;5.05;2.85;;;11.40;99.90;;;;;;5005629;28;20219;-91
2023/03/19 08:09:41;;;;;;;5.82;2.53;;;11.40;99.90;;;;;;5025563;28;20249;-87
2023/03/19 08:12:08;;;;;;;4.18;2.50;;;11.50;99.90;;;;;;5022734;28;20609;-89
2023/03/19 08:14:35;;;;;;;10.23;2.63;;;11.50;99.90;;;;;;5008264;28;20225;-91
2023/03/19 08:17:00;;;;;;;7.07;3.08;;;11.50;99.90;;;;;;5008183;28;20197;-91
2023/03/19 08:19:26;;;;;;;7.50;2.80;;;11.50;99.90;;;;;;5025445;28;20183;-90
2023/03/19 08:21:52;;;;;;;6.70;2.90;;;11.50;99.90;;;;;;5011788;28;20190;-91
2023/03/19 08:24:18;;;;;;;3.72;2.70;;;11.60;99.90;;;;;;5030999;28;20180;-90
2023/03/19 08:26:45;;;;;;;6.28;2.63;;;11.70;99.90;;;;;;5024397;28;20764;-90
2023/03/19 08:29:11;;;;;;;6.38;2.72;;;11.80;99.90;;;;;;5009272;28;20202;-90
2023/03/19 08:31:37;;;;;;;5.13;2.88;;;11.80;99.90;;;;;;5020844;28;20190;-91
2023/03/19 08:34:03;;;;;;;5.03;2.03;;;11.90;99.90;;;;;;5017491;28;20194;-91
2023/03/19 08:36:30;;;;;;;5.20;2.45;;;11.90;99.90;;;;;;5011590;28;20187;-91
2023/03/19 08:38:57;;;;;;;7.30;2.78;;;11.90;99.90;;;;;;5014010;28;20275;-90
2023/03/19 08:41:24;;;;;;;5.85;2.47;;;11.90;99.90;;;;;;5013121;28;20190;-90
2023/03/19 08:43:50;;;;;;;7.53;2.80;;;12.00;99.90;;;;;;5007963;28;20186;-89
2023/03/19 08:46:17;;;;;;;9.88;2.75;;;12.00;99.90;;;;;;5024961;28;20218;-89
2023/03/19 08:48:44;;;;;;;7.10;2.78;;;12.00;99.90;;;;;;5010053;28;20270;-91
2023/03/19 08:51:10;;;;;;;3.15;2.30;;;11.90;99.90;;;;;;5029726;28;20293;-89
2023/03/19 08:53:36;;;;;;;10.65;2.78;;;12.00;99.90;;;;;;5026920;28;20175;-88
2023/03/19 08:56:06;;;;;;;3.53;2.15;;;11.90;99.90;;;;;;5005878;28;20606;-88
2023/03/19 08:58:32;;;;;;;3.38;2.30;;;11.90;99.90;;;;;;5018008;28;20523;-91
2023/03/19 09:01:16;;;;;;;4.82;2.40;;;11.80;99.90;;;;;;5023596;28;20199;-89
2023/03/19 09:03:44;;;;;;;2.72;1.83;;;11.80;99.90;;;;;;5008440;28;20197;-92
2023/03/19 09:06:11;;;;;;;4.40;2.42;;;11.80;99.90;;;;;;5009662;28;20210;-88
2023/03/19 09:08:37;;;;;;;4.43;2.30;;;11.70;99.90;;;;;;5003921;28;20241;-89
2023/03/19 09:11:04;;;;;;;5.25;2.80;;;11.60;99.90;;;;;;5004444;28;20618;-88
2023/03/19 09:13:30;;;;;;;8.98;2.88;;;11.60;99.90;;;;;;5021861;28;20209;-85
2023/03/19 09:15:56;;;;;;;7.60;2.70;;;11.60;99.90;;;;;;5010605;28;20221;-90
2023/03/19 09:18:25;;;;;;;7.55;2.78;;;11.50;99.90;;;;;;5025277;28;20381;-87
2023/03/19 09:20:52;;;;;;;5.70;2.83;;;11.40;99.90;;;;;;5023111;28;20648;-90
2023/03/19 09:23:18;;;;;;;5.50;3.22;;;11.40;99.90;;;;;;5005310;28;20245;-89
2023/03/19 09:25:44;;;;;;;6.85;2.92;;;11.30;99.90;;;;;;5020916;28;20650;-91
2023/03/19 09:28:11;;;;;;;6.35;3.08;;;11.20;99.90;;;;;;5027725;28;20194;-91
2023/03/19 09:30:37;;;;;;;6.30;3.15;;;11.10;99.90;;;;;;5004169;28;20187;-89
2023/03/19 09:33:03;;;;;;;9.40;3.13;;;11.10;99.90;;;;;;5030041;28;20613;-91
2023/03/19 09:35:31;;;;;;;8.05;3.40;;;11.00;99.90;;;;;;5022176;28;20242;-89
2023/03/19 09:38:00;;;;;;;8.52;3.10;;;11.00;99.90;;;;;;5004608;28;20186;-88
2023/03/19 09:40:28;;;;;;;6.30;4.05;;;11.00;99.90;;;;;;5006887;28;20700;-88
2023/03/19 09:43:20;;;;;;;8.98;4.15;;;11.10;99.90;;;;;;5028891;28;20206;-88
2023/03/19 09:45:47;;;;;;;7.78;4.45;;;11.20;99.90;;;;;;4992104;28;20841;-88
2023/03/19 09:48:31;;;;;;;10.82;5.38;;;11.40;99.90;;;;;;5023538;28;20265;-86
2023/03/19 09:50:59;;;;;;;6.53;4.30;;;11.70;99.90;;;;;;5013031;28;20206;-87
2023/03/19 09:53:44;;;;;;;5.57;4.05;;;11.90;99.90;;;;;;5023528;28;20185;-88
2023/03/19 09:56:18;;;;;;;6.25;3.40;;;12.10;99.90;;;;;;5025362;28;20237;-88
2023/03/19 09:58:44;;;;;;;5.82;3.45;;;12.30;99.90;;;;;;5024834;28;20253;-87
2023/03/19 10:01:32;;;;;;;7.55;3.42;;;12.40;99.90;;;;;;5025602;28;20213;-86
2023/03/19 10:04:15;;;;;;;3.70;2.80;;;12.60;99.90;;;;;;5028006;28;20175;-88
2023/03/19 10:06:41;;;;;;;5.95;2.80;;;12.80;99.90;;;;;;5029549;28;20202;-86
2023/03/19 10:09:28;;;;;;;2.90;1.92;;;13.00;99.90;;;;;;5030041;28;20617;-88
2023/03/19 10:12:16;;;;;;;4.43;2.20;;;13.10;99.90;;;;;;5019077;28;20194;-88
2023/03/19 10:15:14;;;;;;;2.38;1.55;;;13.40;99.90;;;;;;5037365;28;20186;-88
2023/03/19 10:17:44;;;;;;;6.53;1.75;;;13.60;99.90;;;;;;5011555;28;20184;-89
2023/03/19 10:20:21;;;;;;;6.20;1.83;;;13.80;99.90;;;;;;5006692;28;20183;-88
2023/03/19 10:22:51;;;;;;;2.58;1.88;;;13.90;99.90;;;;;;5014009;28;20560;-88
2023/03/19 10:25:25;;;;;;;3.83;1.92;;;14.00;99.90;;;;;;5011555;28;20183;-89
2023/03/19 10:27:57;;;;;;;2.85;1.60;;;14.00;99.90;;;;;;5030826;28;20205;-90
2023/03/19 10:30:24;;;;;;;3.22;1.33;;;14.20;99.90;;;;;;5025190;28;20262;-90
2023/03/19 10:33:26;;;;;;;2.60;1.17;;;14.30;99.90;;;;;;5019317;28;20221;-90
2023/03/19 10:36:08;;;;;;;1.15;0.77;;;14.40;99.90;;;;;;5007862;28;20195;-90
2023/03/19 10:38:40;;;;;;;1.40;0.70;;;14.50;99.90;;;;;;5017138;28;20703;-89
2023/03/19 10:41:30;;;;;;;4.10;0.77;;;14.60;99.90;;;;;;5010734;28;20231;-90
2023/03/19 10:44:00;;;;;;;1.92;0.63;;;14.70;99.90;;;;;;5004397;28;20242;-89
2023/03/19 10:46:27;;;;;;;1.90;0.80;;;14.80;99.90;;;;;;5008075;28;20238;-90
2023/03/19 10:48:52;;;;;;;1.50;0.70;;;14.90;99.90;;;;;;5010335;28;20281;-90
2023/03/19 10:51:23;;;;;;;1.27;0.60;;;14.90;99.90;;;;;;5030158;28;20266;-90
2023/03/19 10:53:52;;;;;;;2.97;0.90;;;15.00;99.90;;;;;;5014316;28;20183;-90
2023/03/19 10:56:24;;;;;;;1.50;0.40;;;15.00;99.90;;;;;;5014905;28;20178;-88
2023/03/19 10:59:05;;;;;;;0.70;0.60;;;15.10;99.90;;;;;;5026392;28;20182;-90
2023/03/19 11:01:39;;;;;;;1.83;0.65;;;15.20;99.90;;;;;;5027328;28;20615;-90
2023/03/19 11:04:20;;;;;;;0.60;0.30;;;15.30;99.90;;;;;;5015232;28;20735;-91
2023/03/19 11:06:53;;;;;;;0.60;0.40;;;15.40;99.90;;;;;;5018323;28;20653;-89
2023/03/19 11:09:37;;;;;;;1.48;0.50;;;15.50;99.90;;;;;;5031150;28;20277;-90
2023/03/19 11:12:15;;;;;;;1.10;0.60;;;15.70;99.90;;;;;;5019218;28;20225;-90
2023/03/19 11:14:45;;;;;;;1.70;0.47;;;15.80;99.90;;;;;;5031698;28;20560;-89
2023/03/19 11:17:35;;;;;;;0.80;0.60;;;15.90;99.90;;;;;;5011608;28;20275;-91
2023/03/19 11:20:22;;;;;;;0.93;0.57;;;15.90;99.90;;;;;;5009219;28;20666;-90
2023/03/19 11:22:49;;;;;;;0.50;0.50;;;16.00;99.90;;;;;;5006021;28;20588;-90
2023/03/19 11:25:18;;;;;;;1.55;0.63;;;16.20;99.90;;;;;;5011562;28;20189;-89
2023/03/19 11:28:13;;;;;;;0.95;0.55;;;16.30;99.90;;;;;;5009132;28;20525;-90
2023/03/19 11:30:44;;;;;;;0.98;0.60;;;16.40;99.90;;;;;;5005037;28;20277;-89
2023/03/19 11:33:16;;;;;;;0.77;0.50;;;16.40;99.90;;;;;;5007406;28;20195;-89
2023/03/19 11:35:46;;;;;;;1.13;0.50;;;16.50;99.90;;;;;;5014703;28;20178;-88
2023/03/19 11:38:50;;;;;;;0.60;0.30;;;16.70;99.90;;;;;;5006285;28;20190;-88
2023/03/19 11:42:04;;;;;;;0.63;0.50;;;16.80;99.90;;;;;;5006798;28;20290;-90
2023/03/19 11:44:51;;;;;;;2.28;0.45;;;16.70;99.90;;;;;;4953038;28;20282;-89
2023/03/19 11:47:33;;;;;;;1.00;0.40;;;16.60;99.90;;;;;;5003719;28;20739;-87
2023/03/19 11:50:53;;;;;;;0.60;0.50;;;16.40;99.90;;;;;;5028948;28;20265;-88
2023/03/19 11:53:30;;;;;;;0.60;0.40;;;16.10;99.90;;;;;;4928856;29;20243;-89
2023/03/19 11:56:42;;;;;;;0.40;0.40;;;15.90;99.90;;;;;;5010574;28;20636;-85
2023/03/19 11:59:16;;;;;;;0.50;0.40;;;15.80;99.90;;;;;;4934439;29;20190;-90
2023/03/19 12:01:59;;;;;;;1.10;0.40;;;15.80;99.90;;;;;;5005700;28;20194;-89
2023/03/19 12:04:52;;;;;;;0.80;0.40;;;15.90;99.90;;;;;;5014164;28;20229;-92
2023/03/19 12:07:24;;;;;;;0.70;0.50;;;15.90;99.90;;;;;;5015330;28;20268;-90
2023/03/19 12:10:29;;;;;;;2.50;0.63;;;15.90;99.90;;;;;;5024622;28;20175;-91
2023/03/19 12:13:03;;;;;;;1.05;0.60;;;15.90;99.90;;;;;;5025381;28;20186;-89
2023/03/19 12:15:55;;;;;;;1.02;0.60;;;16.00;99.90;;;;;;5014668;28;20178;-90
2023/03/19 12:18:48;;;;;;;0.75;0.60;;;16.40;99.90;;;;;;4995825;28;20258;-89
2023/03/19 12:21:29;;;;;;;1.13;0.70;;;16.90;99.90;;;;;;5022424;28;20199;-86
2023/03/19 12:24:27;;;;;;;0.95;0.63;;;17.10;99.90;;;;;;5029291;28;20202;-86
2023/03/19 12:27:25;;;;;;;1.20;0.80;;;17.50;99.90;;;;;;5031678;28;20209;-88
2023/03/19 12:30:00;;;;;;;1.40;0.70;;;17.60;99.90;;;;;;5006447;28;20214;-89
2023/03/19 12:32:41;;;;;;;1.10;0.60;;;17.70;99.90;;;;;;5024087;28;20265;-91
2023/03/19 12:35:21;;;;;;;2.53;1.10;;;17.90;99.90;;;;;;5025708;28;20206;-88
2023/03/19 12:38:04;;;;;;;3.47;1.30;;;18.10;99.90;;;;;;5008667;28;20186;-89
2023/03/19 12:40:48;;;;;;;4.30;1.40;;;18.20;99.90;;;;;;5009803;28;20657;-87
2023/03/19 12:43:37;;;;;;;2.13;1.00;;;18.10;99.90;;;;;;5009056;28;20197;-86
2023/03/19 12:46:29;;;;;;;1.73;1.10;;;18.00;99.90;;;;;;5000443;28;21167;-87
2023/03/19 12:49:01;;;;;;;2.35;0.90;;;17.60;99.90;;;;;;5031724;28;20171;-88
2023/03/19 12:51:33;;;;;;;4.15;1.00;;;17.20;99.90;;;;;;5007809;28;20186;-89
2023/03/19 12:54:09;;;;;;;1.40;0.93;;;16.90;99.90;;;;;;5030023;28;20183;-90
2023/03/19 12:56:35;;;;;;;2.15;1.05;;;16.80;99.90;;;;;;5009079;28;20636;-89
2023/03/19 12:59:04;;;;;;;3.20;1.10;;;16.90;99.90;;;;;;5008357;28;20253;-90
2023/03/19 13:01:47;;;;;;;2.30;1.02;;;17.10;99.90;;;;;;5008273;28;20659;-90
2023/03/19 13:04:22;;;;;;;1.65;1.15;;;17.30;99.90;;;;;;5012183;28;20709;-91
2023/03/19 13:07:17;;;;;;;2.42;1.10;;;17.30;99.90;;;;;;5017508;28;20245;-89